Weather at Bor Airport

Public forecast

Using degrees Celsius for public forecast. Weather courtesy of forecast.io.

Closest aviation weather report (METAR) to Bor Airport

Closest report is Nis Airport, 42.7 nm (79.1 km) SSW. Retrieved 2022/07/01 16:30 UTC (0 seconds ago):

LYNI 011630Z 08007KT CAVOK 35/09 Q1012 NOSIG

Closest aviation forecast (TAF) to Bor Airport

Closest forecast is Nis Airport, 42.7 nm (79.1 km) SSW. Retrieved 2022/07/01 12:21 UTC (4 hours ago):

TAF LYNI 011100Z 0112/0212 04005KT CAVOK TX37/0114Z TN20/0203Z PROB30 TEMPO 0114/0116 VRB15KT TS FEW040CB BECMG 0208/0210 32013KT TEMPO 0210/0212 02017G35KT 1500 TSRAGR SCT030CB